createdAt,value
2022-08-04T00:02:24.919Z,21.45
2022-08-04T00:04:35.950Z,21.54
2022-08-04T00:06:40.535Z,21.64
2022-08-04T00:08:48.516Z,21.70
2022-08-04T00:10:54.405Z,21.77
2022-08-04T00:12:57.339Z,21.82
2022-08-04T00:15:03.648Z,21.85
2022-08-04T00:17:08.573Z,21.88
2022-08-04T00:19:19.362Z,21.91
2022-08-04T00:21:23.284Z,21.92
2022-08-04T00:23:27.061Z,21.90
2022-08-04T00:25:49.020Z,21.91
2022-08-04T00:27:51.301Z,21.91
2022-08-04T00:29:53.329Z,21.92
2022-08-04T00:31:57.997Z,21.89
2022-08-04T00:34:00.419Z,21.86
2022-08-04T00:36:02.922Z,21.88
2022-08-04T00:38:05.464Z,21.78
2022-08-04T00:40:19.187Z,21.56
2022-08-04T00:42:49.301Z,21.19
2022-08-04T00:46:10.956Z,20.80
2022-08-04T00:48:31.722Z,20.69
2022-08-04T00:50:53.053Z,20.71
2022-08-04T00:53:13.565Z,20.62
2022-08-04T00:55:56.667Z,20.65
2022-08-04T00:58:29.163Z,20.81
2022-08-04T01:01:03.419Z,20.92
2022-08-04T01:03:26.846Z,21.02
2022-08-04T01:05:38.472Z,21.10
2022-08-04T01:07:46.231Z,21.18
2022-08-04T01:09:56.549Z,21.24
2022-08-04T01:12:19.710Z,21.31
2022-08-04T01:14:58.834Z,21.35
2022-08-04T01:17:34.088Z,21.36
2022-08-04T01:19:55.452Z,21.39
2022-08-04T01:22:05.883Z,21.41
2022-08-04T01:24:30.022Z,21.46
2022-08-04T01:26:58.282Z,21.50
2022-08-04T01:29:15.809Z,21.54
2022-08-04T01:31:55.557Z,21.52
2022-08-04T01:34:04.323Z,21.50
2022-08-04T01:36:06.850Z,21.50
2022-08-04T01:38:18.270Z,21.41
2022-08-04T01:40:26.950Z,21.34
2022-08-04T01:42:32.623Z,21.30
2022-08-04T01:44:36.682Z,21.27
2022-08-04T01:46:38.661Z,21.26
2022-08-04T01:48:41.438Z,21.28
2022-08-04T01:50:44.022Z,21.21
2022-08-04T01:52:50.754Z,21.04
2022-08-04T01:54:53.191Z,20.71
2022-08-04T01:56:56.360Z,20.59
2022-08-04T01:58:58.402Z,20.46
2022-08-04T02:01:05.215Z,20.41
2022-08-04T02:03:24.519Z,20.43
2022-08-04T02:06:03.992Z,20.48
2022-08-04T02:08:27.592Z,20.57
2022-08-04T02:10:43.734Z,20.65
2022-08-04T02:13:00.158Z,20.71
2022-08-04T02:15:24.231Z,20.73
2022-08-04T02:17:41.096Z,20.76
2022-08-04T02:19:55.869Z,20.82
2022-08-04T02:22:03.552Z,20.83
2022-08-04T02:24:12.251Z,20.92
2022-08-04T02:26:22.255Z,20.94
2022-08-04T02:28:48.346Z,20.95
2022-08-04T02:31:05.292Z,20.97
2022-08-04T02:33:07.896Z,20.98
2022-08-04T02:35:15.558Z,20.93
2022-08-04T02:37:18.331Z,20.89
2022-08-04T02:39:22.052Z,20.83
2022-08-04T02:41:26.657Z,20.61
2022-08-04T02:43:51.362Z,20.38
2022-08-04T02:45:54.275Z,19.90
2022-08-04T02:48:29.228Z,19.43
2022-08-04T02:50:28.186Z,19.35
2022-08-04T02:52:31.624Z,19.40
2022-08-04T02:54:37.265Z,19.44
2022-08-04T02:56:40.358Z,19.43
2022-08-04T02:58:43.012Z,19.43
2022-08-04T03:00:45.704Z,19.52
2022-08-04T03:02:47.469Z,19.53
2022-08-04T03:05:01.550Z,19.60
2022-08-04T03:07:14.481Z,19.53
2022-08-04T03:09:49.165Z,19.48
2022-08-04T03:12:21.080Z,19.47
2022-08-04T03:14:40.894Z,19.34
2022-08-04T03:17:07.895Z,19.34
2022-08-04T03:19:34.040Z,19.39
2022-08-04T03:22:06.734Z,19.22
2022-08-04T03:24:31.433Z,19.09
2022-08-04T03:27:06.336Z,18.61
2022-08-04T03:29:36.353Z,18.38
2022-08-04T03:31:59.977Z,18.39
2022-08-04T03:34:37.634Z,18.41
2022-08-04T03:37:21.708Z,18.57
2022-08-04T03:39:46.505Z,18.69
2022-08-04T03:42:12.143Z,18.79
2022-08-04T03:44:51.840Z,19.02
2022-08-04T03:47:15.116Z,19.24
2022-08-04T03:49:34.425Z,19.36
2022-08-04T03:52:16.308Z,19.31
2022-08-04T03:54:58.741Z,19.14
2022-08-04T03:57:25.054Z,18.71
2022-08-04T03:59:50.228Z,18.30
2022-08-04T04:02:19.795Z,18.30
2022-08-04T04:04:30.354Z,18.31
2022-08-04T04:07:10.245Z,18.53
2022-08-04T04:09:56.837Z,18.89
2022-08-04T04:12:11.809Z,19.21
2022-08-04T04:14:23.108Z,19.44
2022-08-04T04:16:55.393Z,19.54
2022-08-04T04:19:12.305Z,19.52
2022-08-04T04:21:38.497Z,19.41
2022-08-04T04:23:53.681Z,19.20
2022-08-04T04:26:17.146Z,19.06
2022-08-04T04:28:45.567Z,19.10
2022-08-04T04:30:54.167Z,19.20
2022-08-04T04:33:25.951Z,19.36
2022-08-04T04:35:52.548Z,19.56
2022-08-04T04:38:21.377Z,19.78
2022-08-04T04:40:29.111Z,19.93
2022-08-04T04:42:54.327Z,20.01
2022-08-04T04:44:59.263Z,20.10
2022-08-04T04:47:18.485Z,20.22
2022-08-04T04:49:59.955Z,20.32
2022-08-04T04:52:18.368Z,20.25
2022-08-04T04:54:49.251Z,20.34
2022-08-04T04:57:03.985Z,20.41
2022-08-04T04:59:10.591Z,20.47
2022-08-04T05:01:41.095Z,20.19
2022-08-04T05:04:07.760Z,19.52
2022-08-04T05:06:54.654Z,18.92
2022-08-04T05:09:27.238Z,18.94
2022-08-04T05:12:02.884Z,19.16
2022-08-04T05:14:36.439Z,19.12
2022-08-04T05:16:39.495Z,19.22
2022-08-04T05:18:42.545Z,19.24
2022-08-04T05:20:53.016Z,19.50
2022-08-04T05:23:01.229Z,19.67
2022-08-04T05:25:15.974Z,19.94
2022-08-04T05:27:22.042Z,20.18
2022-08-04T05:29:51.961Z,20.40
2022-08-04T05:31:54.723Z,20.30
2022-08-04T05:34:05.966Z,20.32
2022-08-04T05:36:18.955Z,20.38
2022-08-04T05:38:31.987Z,20.38
2022-08-04T05:40:33.856Z,20.63
2022-08-04T05:42:39.921Z,20.89
2022-08-04T05:44:44.486Z,21.19
2022-08-04T05:46:56.043Z,21.48
2022-08-04T05:48:58.217Z,21.66
2022-08-04T05:51:01.404Z,21.86
2022-08-04T05:53:03.525Z,21.86
2022-08-04T05:55:06.263Z,21.74
2022-08-04T05:57:09.035Z,21.62
2022-08-04T05:59:12.411Z,21.70
2022-08-04T06:01:15.348Z,21.79
2022-08-04T06:03:18.666Z,21.77
2022-08-04T06:05:20.688Z,21.57
2022-08-04T06:07:22.931Z,20.91
2022-08-04T06:09:24.932Z,20.50
2022-08-04T06:11:29.213Z,20.15
2022-08-04T06:13:47.476Z,20.08
2022-08-04T06:15:55.145Z,20.04
2022-08-04T06:18:58.544Z,19.99
2022-08-04T06:20:32.642Z,20.16
2022-08-04T06:22:41.562Z,20.46
2022-08-04T06:24:45.730Z,20.72
2022-08-04T06:26:50.163Z,20.97
2022-08-04T06:28:52.276Z,21.18
2022-08-04T06:30:55.503Z,21.36
2022-08-04T06:33:03.590Z,21.53
2022-08-04T06:35:08.270Z,21.73
2022-08-04T06:37:10.328Z,21.50
2022-08-04T06:39:12.468Z,21.59
2022-08-04T06:41:15.535Z,21.71
2022-08-04T06:43:17.501Z,21.82
2022-08-04T06:45:21.482Z,21.72
2022-08-04T06:47:23.600Z,21.79
2022-08-04T06:49:26.034Z,21.58
2022-08-04T06:51:38.039Z,21.59
2022-08-04T06:53:47.405Z,21.66
2022-08-04T06:55:50.553Z,21.91
2022-08-04T06:57:52.799Z,22.12
2022-08-04T06:59:58.797Z,22.44
2022-08-04T07:02:01.086Z,22.65
2022-08-04T07:04:03.591Z,22.94
2022-08-04T07:06:14.128Z,23.23
2022-08-04T07:08:16.824Z,23.49
2022-08-04T07:10:22.189Z,23.74
2022-08-04T07:12:24.961Z,23.87
2022-08-04T07:14:27.732Z,24.09
2022-08-04T07:16:30.619Z,24.24
2022-08-04T07:18:32.781Z,24.34
2022-08-04T07:20:36.811Z,24.42
2022-08-04T07:22:40.776Z,24.49
2022-08-04T07:24:43.017Z,24.59
2022-08-04T07:26:50.696Z,24.68
2022-08-04T07:28:52.416Z,24.76
2022-08-04T07:30:55.896Z,24.87
2022-08-04T07:32:57.415Z,24.87
2022-08-04T07:34:59.354Z,24.91
2022-08-04T07:37:02.021Z,24.94
2022-08-04T07:39:04.561Z,25.04
2022-08-04T07:43:31.776Z,24.99
2022-08-04T07:45:33.668Z,25.02
2022-08-04T07:47:35.605Z,25.13
2022-08-04T07:49:55.860Z,25.34
2022-08-04T07:52:00.132Z,25.46
2022-08-04T07:54:06.058Z,25.58
2022-08-04T07:56:07.943Z,25.67
2022-08-04T07:58:09.643Z,25.74
2022-08-04T08:00:14.865Z,25.70
2022-08-04T08:02:17.044Z,25.68
2022-08-04T08:04:19.143Z,25.24
2022-08-04T08:06:32.028Z,25.08
2022-08-04T08:08:39.032Z,24.85
2022-08-04T08:10:46.472Z,24.85
2022-08-04T08:12:51.158Z,24.79
2022-08-04T08:14:53.735Z,24.89
2022-08-04T08:16:55.557Z,24.80
2022-08-04T08:18:57.275Z,24.89
2022-08-04T08:20:59.037Z,24.91
2022-08-04T08:23:02.259Z,25.03
2022-08-04T08:25:06.580Z,25.13
2022-08-04T08:27:08.374Z,25.17
2022-08-04T08:29:10.422Z,25.40
2022-08-04T08:31:12.139Z,25.37
2022-08-04T08:33:15.565Z,25.40
2022-08-04T08:35:17.263Z,25.74
2022-08-04T08:37:31.760Z,25.73
2022-08-04T08:39:39.780Z,25.81
2022-08-04T08:41:51.975Z,25.85
2022-08-04T08:44:18.996Z,26.07
2022-08-04T08:46:50.476Z,26.35
2022-08-04T08:50:02.613Z,26.57
2022-08-04T08:52:09.406Z,26.72
2022-08-04T08:54:16.855Z,26.55
2022-08-04T08:56:32.967Z,26.62
2022-08-04T08:58:49.873Z,26.69
2022-08-04T09:00:57.356Z,26.52
2022-08-04T09:03:23.780Z,26.31
2022-08-04T09:05:54.404Z,26.35
2022-08-04T09:08:22.290Z,26.58
2022-08-04T09:10:33.085Z,26.54
2022-08-04T09:12:58.275Z,26.58
2022-08-04T09:15:17.645Z,26.64
2022-08-04T09:17:23.943Z,26.76
2022-08-04T09:19:46.174Z,26.90
2022-08-04T09:21:49.259Z,26.81
2022-08-04T09:23:56.787Z,26.84
2022-08-04T09:26:00.908Z,26.87
2022-08-04T09:28:10.874Z,27.02
2022-08-04T09:30:14.166Z,27.14
2022-08-04T09:32:33.499Z,27.22
2022-08-04T09:34:46.787Z,27.47
2022-08-04T09:37:26.493Z,27.83
2022-08-04T09:39:44.512Z,28.12
2022-08-04T09:42:10.412Z,27.96
2022-08-04T09:44:52.420Z,27.51
2022-08-04T09:47:25.196Z,27.58
2022-08-04T09:49:48.333Z,27.48
2022-08-04T09:51:59.101Z,27.32
2022-08-04T09:54:29.907Z,27.72
2022-08-04T09:56:58.218Z,27.90
2022-08-04T09:59:22.928Z,27.89
2022-08-04T10:01:27.083Z,27.94
2022-08-04T10:03:33.626Z,28.07
2022-08-04T10:05:57.299Z,27.80
2022-08-04T10:08:21.748Z,28.13
2022-08-04T10:11:55.645Z,28.44
2022-08-04T10:14:05.498Z,28.66
2022-08-04T10:16:19.033Z,28.26
2022-08-04T10:18:23.817Z,28.17
2022-08-04T10:20:45.834Z,28.49
2022-08-04T10:23:11.517Z,28.53
2022-08-04T10:26:07.571Z,28.42
2022-08-04T10:28:06.400Z,28.65
2022-08-04T10:30:13.447Z,28.76
2022-08-04T10:32:42.943Z,29.13
2022-08-04T10:35:02.219Z,29.55
2022-08-04T10:37:59.301Z,29.92
2022-08-04T10:40:22.431Z,30.23
2022-08-04T10:42:30.144Z,30.03
2022-08-04T10:44:44.279Z,29.71
2022-08-04T10:46:50.100Z,29.50
2022-08-04T10:49:01.392Z,29.49
2022-08-04T10:51:20.121Z,29.52
2022-08-04T10:53:23.393Z,29.10
2022-08-04T10:56:05.515Z,28.85
2022-08-04T10:57:58.017Z,28.63
2022-08-04T11:00:14.920Z,28.85
2022-08-04T11:03:04.178Z,28.78
2022-08-04T11:05:15.608Z,28.81
2022-08-04T11:07:17.904Z,28.84
2022-08-04T11:09:20.571Z,29.26
2022-08-04T11:12:01.377Z,29.66
2022-08-04T11:14:05.362Z,29.73
2022-08-04T11:16:14.079Z,29.92
2022-08-04T11:18:27.287Z,29.88
2022-08-04T11:20:41.329Z,29.44
2022-08-04T11:22:59.005Z,28.88
2022-08-04T11:25:22.314Z,29.02
2022-08-04T11:27:56.430Z,29.26
2022-08-04T11:30:09.742Z,29.20
2022-08-04T11:32:29.893Z,29.16
2022-08-04T11:34:33.371Z,29.32
2022-08-04T11:36:50.124Z,29.40
2022-08-04T11:39:37.563Z,29.45
2022-08-04T11:41:42.763Z,29.76
2022-08-04T11:44:01.806Z,30.07
2022-08-04T11:46:09.911Z,30.35
2022-08-04T11:48:20.528Z,30.53
2022-08-04T11:50:53.991Z,30.53
2022-08-04T11:52:57.636Z,30.20
2022-08-04T11:55:04.064Z,29.98
2022-08-04T11:57:06.313Z,30.02
2022-08-04T11:59:10.987Z,29.89
2022-08-04T12:01:27.851Z,29.49
2022-08-04T12:04:00.457Z,29.59
2022-08-04T12:06:22.411Z,29.88
2022-08-04T12:08:34.945Z,29.97
2022-08-04T12:10:44.289Z,29.78
2022-08-04T12:13:03.848Z,29.74
2022-08-04T12:15:27.757Z,29.72
2022-08-04T12:17:52.691Z,29.65
2022-08-04T12:20:04.181Z,29.71
2022-08-04T12:22:22.659Z,29.81
2022-08-04T12:24:33.743Z,29.66
2022-08-04T12:26:40.222Z,29.27
2022-08-04T12:29:08.938Z,29.25
2022-08-04T12:31:14.065Z,29.04
2022-08-04T12:34:03.248Z,28.84
2022-08-04T12:36:11.582Z,28.73
2022-08-04T12:38:15.020Z,28.62
2022-08-04T12:40:28.980Z,28.65
2022-08-04T12:43:00.333Z,28.66
2022-08-04T12:45:07.770Z,28.82
2022-08-04T12:47:26.641Z,28.92
2022-08-04T12:49:32.711Z,28.96
2022-08-04T12:52:06.687Z,28.98
2022-08-04T12:54:03.430Z,28.93
2022-08-04T12:56:07.466Z,28.94
2022-08-04T12:58:16.122Z,28.87
2022-08-04T13:00:29.586Z,28.81
2022-08-04T13:02:42.570Z,28.78
2022-08-04T13:04:51.535Z,29.04
2022-08-04T13:07:11.340Z,29.35
2022-08-04T13:09:17.547Z,29.53
2022-08-04T13:11:22.141Z,29.70
2022-08-04T13:13:29.577Z,29.87
2022-08-04T13:15:33.642Z,29.84
2022-08-04T13:17:59.463Z,29.65
2022-08-04T13:20:01.644Z,29.58
2022-08-04T13:22:05.658Z,29.40
2022-08-04T13:24:22.759Z,29.44
2022-08-04T13:26:43.350Z,29.75
2022-08-04T13:29:00.800Z,30.03
2022-08-04T13:31:23.340Z,30.30
2022-08-04T13:33:33.738Z,30.44
2022-08-04T13:35:56.111Z,30.50
2022-08-04T13:37:58.733Z,30.57
2022-08-04T13:40:04.362Z,30.46
2022-08-04T13:42:10.191Z,30.20
2022-08-04T13:44:18.306Z,30.02
2022-08-04T13:46:29.895Z,29.92
2022-08-04T13:48:33.982Z,30.01
2022-08-04T13:50:37.579Z,30.15
2022-08-04T13:52:41.292Z,30.38
2022-08-04T13:54:46.568Z,30.46
2022-08-04T13:56:55.775Z,30.65
2022-08-04T13:58:58.225Z,30.75
2022-08-04T14:01:11.404Z,30.66
2022-08-04T14:04:05.781Z,30.65
2022-08-04T14:06:23.057Z,30.78
2022-08-04T14:08:26.810Z,30.93
2022-08-04T14:10:31.692Z,30.99
2022-08-04T14:12:38.065Z,30.64
2022-08-04T14:14:52.646Z,30.71
2022-08-04T14:16:58.499Z,30.89
2022-08-04T14:19:01.966Z,31.03
2022-08-04T14:21:12.585Z,31.17
2022-08-04T14:23:14.290Z,31.16
2022-08-04T14:25:17.907Z,30.93
2022-08-04T14:27:20.128Z,30.99
2022-08-04T14:29:26.998Z,31.12
2022-08-04T14:31:31.295Z,31.33
2022-08-04T14:34:01.958Z,31.51
2022-08-04T14:36:03.942Z,31.65
2022-08-04T14:38:11.588Z,31.41
2022-08-04T14:40:30.863Z,31.13
2022-08-04T14:42:44.052Z,31.11
2022-08-04T14:44:55.602Z,31.22
2022-08-04T14:46:59.288Z,31.28
2022-08-04T14:49:10.045Z,31.26
2022-08-04T14:51:15.980Z,31.03
2022-08-04T14:53:23.119Z,30.92
2022-08-04T14:55:25.084Z,30.68
2022-08-04T14:57:27.512Z,30.49
2022-08-04T14:59:41.732Z,30.47
2022-08-04T15:02:01.778Z,30.42
2022-08-04T15:04:04.625Z,30.25
2022-08-04T15:06:12.546Z,30.13
2022-08-04T15:08:16.881Z,30.12
2022-08-04T15:10:20.810Z,30.09
2022-08-04T15:12:23.571Z,29.99
2022-08-04T15:14:37.439Z,29.88
2022-08-04T15:16:53.811Z,29.89
2022-08-04T15:18:57.499Z,29.76
2022-08-04T15:21:03.059Z,29.69
2022-08-04T15:23:10.139Z,29.69
2022-08-04T15:25:12.589Z,29.64
2022-08-04T15:27:18.427Z,29.66
2022-08-04T15:29:59.801Z,29.57
2022-08-04T15:32:09.412Z,29.62
2022-08-04T15:34:12.345Z,29.66
2022-08-04T15:36:36.100Z,29.57
2022-08-04T15:39:12.281Z,29.58
2022-08-04T15:41:46.333Z,29.59
2022-08-04T15:44:23.760Z,29.58
2022-08-04T15:46:42.796Z,29.61
2022-08-04T15:48:46.711Z,29.55
2022-08-04T15:51:00.652Z,29.46
2022-08-04T15:53:10.820Z,29.41
2022-08-04T15:55:34.606Z,29.24
2022-08-04T15:58:01.800Z,29.25
2022-08-04T16:00:14.406Z,29.37
2022-08-04T16:02:40.815Z,29.55
2022-08-04T16:04:43.038Z,29.65
2022-08-04T16:06:45.507Z,29.69
2022-08-04T16:08:57.461Z,29.71
2022-08-04T16:11:00.190Z,29.60
2022-08-04T16:13:10.158Z,29.56
2022-08-04T16:15:37.425Z,29.61
2022-08-04T16:17:40.934Z,29.87
2022-08-04T16:19:58.941Z,30.03
2022-08-04T16:22:06.115Z,30.18
2022-08-04T16:24:29.073Z,30.32
2022-08-04T16:26:36.952Z,30.40
2022-08-04T16:28:42.009Z,30.57
2022-08-04T16:30:44.262Z,30.79
2022-08-04T16:32:47.666Z,30.99
2022-08-04T16:34:56.032Z,31.20
2022-08-04T16:37:03.501Z,31.47
2022-08-04T16:39:06.981Z,31.70
2022-08-04T16:41:08.819Z,31.88
2022-08-04T16:43:18.242Z,32.06
2022-08-04T16:45:20.286Z,32.18
2022-08-04T16:47:48.146Z,32.27
2022-08-04T16:50:02.044Z,32.01
2022-08-04T16:52:13.299Z,31.80
2022-08-04T16:54:15.796Z,31.41
2022-08-04T16:56:21.479Z,31.07
2022-08-04T16:58:30.765Z,30.84
2022-08-04T17:00:36.369Z,30.63
2022-08-04T17:02:38.301Z,30.40
2022-08-04T17:04:40.150Z,30.23
2022-08-04T17:06:46.854Z,30.13
2022-08-04T17:08:49.499Z,30.07
2022-08-04T17:10:51.515Z,29.78
2022-08-04T17:13:03.687Z,29.18
2022-08-04T17:15:26.302Z,29.04
2022-08-04T17:17:29.288Z,28.86
2022-08-04T17:19:53.761Z,28.75
2022-08-04T17:22:05.501Z,28.64
2022-08-04T17:24:14.954Z,28.64
2022-08-04T17:26:22.401Z,28.49
2022-08-04T17:28:47.295Z,28.55
2022-08-04T17:30:51.440Z,28.53
2022-08-04T17:32:54.035Z,28.52
2022-08-04T17:34:59.963Z,28.49
2022-08-04T17:37:36.472Z,28.49
2022-08-04T17:39:35.027Z,28.47
2022-08-04T17:41:40.865Z,28.46
2022-08-04T17:44:05.242Z,28.31
2022-08-04T17:46:28.450Z,28.22
2022-08-04T17:48:31.579Z,28.14
2022-08-04T17:50:36.315Z,28.16
2022-08-04T17:52:45.279Z,28.17
2022-08-04T17:54:47.501Z,28.10
2022-08-04T17:56:52.015Z,28.06
2022-08-04T17:59:08.355Z,28.06
2022-08-04T18:01:27.511Z,27.97
2022-08-04T18:03:30.154Z,27.97
2022-08-04T18:06:02.357Z,28.01
2022-08-04T18:08:38.851Z,28.05
2022-08-04T18:10:32.824Z,28.07
2022-08-04T18:12:38.320Z,28.08
2022-08-04T18:14:49.683Z,28.10
2022-08-04T18:16:51.553Z,28.08
2022-08-04T18:19:12.039Z,28.07
2022-08-04T18:21:13.776Z,28.03
2022-08-04T18:23:16.820Z,28.03
2022-08-04T18:25:23.343Z,28.00
2022-08-04T18:27:50.789Z,27.99
2022-08-04T18:30:38.500Z,27.97
2022-08-04T18:32:15.542Z,27.96
2022-08-04T18:34:24.177Z,27.94
2022-08-04T18:36:36.772Z,27.90
2022-08-04T18:38:55.524Z,27.87
2022-08-04T18:40:57.995Z,27.85
2022-08-04T18:43:00.512Z,27.82
2022-08-04T18:45:05.538Z,27.80
2022-08-04T18:47:22.106Z,27.74
2022-08-04T18:50:59.138Z,27.72
2022-08-04T18:54:08.987Z,27.66
2022-08-04T18:56:20.046Z,27.63
2022-08-04T18:58:32.376Z,27.60
2022-08-04T19:00:35.608Z,27.58
2022-08-04T19:02:37.961Z,27.56
2022-08-04T19:04:43.426Z,27.53
2022-08-04T19:06:51.502Z,27.52
2022-08-04T19:08:53.312Z,27.51
2022-08-04T19:10:59.729Z,27.48
2022-08-04T19:13:02.122Z,27.46
2022-08-04T19:15:10.529Z,27.47
2022-08-04T19:17:13.542Z,27.41
2022-08-04T19:19:17.486Z,27.43
2022-08-04T19:21:19.673Z,27.42
2022-08-04T19:24:27.670Z,27.38
2022-08-04T19:28:27.941Z,27.31
2022-08-04T19:30:32.064Z,27.28
2022-08-04T19:32:33.792Z,27.24
2022-08-04T19:34:36.528Z,27.18
2022-08-04T19:36:38.810Z,26.90
2022-08-04T19:38:48.337Z,26.73
2022-08-04T19:40:52.879Z,26.65
2022-08-04T19:43:04.909Z,26.65
2022-08-04T19:45:15.808Z,26.67
2022-08-04T19:48:16.235Z,26.68
2022-08-04T19:50:05.197Z,26.69
2022-08-04T19:52:03.125Z,26.68
2022-08-04T19:54:16.870Z,26.66
2022-08-04T19:56:25.854Z,26.70
2022-08-04T19:58:27.820Z,26.67
2022-08-04T20:00:34.328Z,26.65
2022-08-04T20:02:36.539Z,26.62
2022-08-04T20:04:39.691Z,26.61
2022-08-04T20:06:44.219Z,26.58
2022-08-04T20:08:48.617Z,26.45
2022-08-04T20:10:51.881Z,26.36
2022-08-04T20:12:55.775Z,26.27
2022-08-04T20:14:57.953Z,26.21
2022-08-04T20:17:03.399Z,26.04
2022-08-04T20:19:14.178Z,25.99
2022-08-04T20:21:19.692Z,26.02
2022-08-04T20:23:44.218Z,26.02
2022-08-04T20:25:48.915Z,26.05
2022-08-04T20:30:16.335Z,26.05
2022-08-04T20:32:23.139Z,26.04
2022-08-04T20:34:25.039Z,26.03
2022-08-04T20:36:26.936Z,26.02
2022-08-04T20:38:33.183Z,25.98
2022-08-04T20:40:36.772Z,25.97
2022-08-04T20:42:39.242Z,25.98
2022-08-04T20:44:42.107Z,25.96
2022-08-04T20:46:48.066Z,25.92
2022-08-04T20:48:50.030Z,25.88
2022-08-04T20:50:51.792Z,25.86
2022-08-04T20:52:53.560Z,25.81
2022-08-04T20:54:56.230Z,25.79
2022-08-04T20:56:59.666Z,25.78
2022-08-04T20:59:01.740Z,25.79
2022-08-04T21:01:10.931Z,25.73
2022-08-04T21:03:16.177Z,25.68
2022-08-04T21:05:18.165Z,25.66
2022-08-04T21:07:21.977Z,25.45
2022-08-04T21:09:37.141Z,25.18
2022-08-04T21:14:06.961Z,24.51
2022-08-04T21:16:13.584Z,24.21
2022-08-04T21:18:35.563Z,24.23
2022-08-04T21:20:42.373Z,24.35
2022-08-04T21:22:45.638Z,24.50
2022-08-04T21:24:48.562Z,24.62
2022-08-04T21:26:56.395Z,24.71
2022-08-04T21:28:58.763Z,24.78
2022-08-04T21:31:02.555Z,24.81
2022-08-04T21:33:13.229Z,24.75
2022-08-04T21:35:16.783Z,24.75
2022-08-04T21:37:18.890Z,24.80
2022-08-04T21:39:23.996Z,24.82
2022-08-04T21:41:49.186Z,24.84
2022-08-04T21:43:58.671Z,24.85
2022-08-04T21:46:04.051Z,24.90
2022-08-04T21:48:07.342Z,24.92
2022-08-04T21:50:10.208Z,24.92
2022-08-04T21:52:11.970Z,24.88
2022-08-04T21:54:15.154Z,24.87
2022-08-04T21:56:26.568Z,24.82
2022-08-04T21:58:32.535Z,24.75
2022-08-04T22:00:34.619Z,24.67
2022-08-04T22:02:36.819Z,24.56
2022-08-04T22:04:38.807Z,24.38
2022-08-04T22:06:40.706Z,23.97
2022-08-04T22:08:43.643Z,23.73
2022-08-04T22:10:51.505Z,23.79
2022-08-04T22:12:53.223Z,23.84
2022-08-04T22:14:59.302Z,23.93
2022-08-04T22:17:02.626Z,24.04
2022-08-04T22:19:06.455Z,24.14
2022-08-04T22:21:12.151Z,24.21
2022-08-04T22:23:16.693Z,24.27
2022-08-04T22:25:19.491Z,24.35
2022-08-04T22:27:40.067Z,24.37
2022-08-04T22:29:44.737Z,24.37
2022-08-04T22:31:56.239Z,24.37
2022-08-04T22:33:58.955Z,24.40
2022-08-04T22:36:01.656Z,24.36
2022-08-04T22:38:07.876Z,24.32
2022-08-04T22:40:26.254Z,24.32
2022-08-04T22:42:28.401Z,24.27
2022-08-04T22:44:33.737Z,24.23
2022-08-04T22:46:35.806Z,24.20
2022-08-04T22:48:39.866Z,24.16
2022-08-04T22:50:45.870Z,24.12
2022-08-04T22:52:55.892Z,24.12
2022-08-04T22:54:58.168Z,24.09
2022-08-04T22:57:00.052Z,24.07
2022-08-04T22:59:02.602Z,24.11
2022-08-04T23:01:04.722Z,24.09
2022-08-04T23:03:06.510Z,24.09
2022-08-04T23:05:13.024Z,24.08
2022-08-04T23:07:18.306Z,23.98
2022-08-04T23:09:49.202Z,23.85
2022-08-04T23:11:53.905Z,23.70
2022-08-04T23:13:59.754Z,23.52
2022-08-04T23:16:05.153Z,23.35
2022-08-04T23:18:11.659Z,23.33
2022-08-04T23:20:23.332Z,23.34
2022-08-04T23:22:37.508Z,23.26
2022-08-04T23:24:44.520Z,23.29
2022-08-04T23:26:50.089Z,23.30
2022-08-04T23:28:51.950Z,23.37
2022-08-04T23:30:53.936Z,23.39
2022-08-04T23:32:55.826Z,23.43
2022-08-04T23:35:00.938Z,23.45
2022-08-04T23:37:02.642Z,23.43
2022-08-04T23:39:06.352Z,23.41
2022-08-04T23:41:13.582Z,23.44
2022-08-04T23:43:17.867Z,23.48
2022-08-04T23:46:04.059Z,23.49
2022-08-04T23:48:18.779Z,23.47
2022-08-04T23:50:03.978Z,23.46
2022-08-04T23:52:05.899Z,23.50
2022-08-04T23:54:08.265Z,23.50
2022-08-04T23:56:11.642Z,23.52
2022-08-04T23:58:26.790Z,23.45
